sensor_id;sensor_type;location;lat;lon;timestamp;P1;durP1;ratioP1;P2;durP2;ratioP2
22849;SDS011;11591;44.792;10.358;2022-09-09T04:27:02;5.72;;;1.80;;
22849;SDS011;11591;44.792;10.358;2022-09-09T04:29:30;3.95;;;2.20;;
22849;SDS011;11591;44.792;10.358;2022-09-09T04:31:56;4.32;;;2.00;;
22849;SDS011;11591;44.792;10.358;2022-09-09T04:38:02;4.53;;;2.03;;
22849;SDS011;11591;44.792;10.358;2022-09-09T04:40:31;7.72;;;2.30;;
22849;SDS011;11591;44.792;10.358;2022-09-09T04:42:57;7.10;;;1.95;;
22849;SDS011;11591;44.792;10.358;2022-09-09T04:45:23;6.78;;;2.20;;
22849;SDS011;11591;44.792;10.358;2022-09-09T04:47:52;7.63;;;2.15;;
22849;SDS011;11591;44.792;10.358;2022-09-09T04:50:19;4.38;;;2.20;;
22849;SDS011;11591;44.792;10.358;2022-09-09T04:52:46;4.95;;;1.75;;
22849;SDS011;11591;44.792;10.358;2022-09-09T04:55:12;6.60;;;2.00;;
22849;SDS011;11591;44.792;10.358;2022-09-09T04:57:42;5.97;;;1.55;;
22849;SDS011;11591;44.792;10.358;2022-09-09T05:00:10;3.78;;;1.70;;
22849;SDS011;11591;44.792;10.358;2022-09-09T05:02:39;6.93;;;1.58;;
22849;SDS011;11591;44.792;10.358;2022-09-09T05:05:07;5.30;;;1.90;;
22849;SDS011;11591;44.792;10.358;2022-09-09T05:07:34;2.55;;;1.60;;
22849;SDS011;11591;44.792;10.358;2022-09-09T05:10:01;6.68;;;2.13;;
22849;SDS011;11591;44.792;10.358;2022-09-09T05:12:30;8.70;;;2.67;;
22849;SDS011;11591;44.792;10.358;2022-09-09T05:14:57;4.00;;;2.05;;
22849;SDS011;11591;44.792;10.358;2022-09-09T05:17:23;9.55;;;5.68;;
22849;SDS011;11591;44.792;10.358;2022-09-09T05:19:49;5.57;;;3.50;;
22849;SDS011;11591;44.792;10.358;2022-09-09T05:22:18;7.32;;;2.38;;
22849;SDS011;11591;44.792;10.358;2022-09-09T05:24:46;4.85;;;1.88;;
22849;SDS011;11591;44.792;10.358;2022-09-09T05:27:13;5.90;;;1.83;;
22849;SDS011;11591;44.792;10.358;2022-09-09T05:29:39;4.93;;;1.58;;
22849;SDS011;11591;44.792;10.358;2022-09-09T05:32:08;4.13;;;1.70;;
22849;SDS011;11591;44.792;10.358;2022-09-09T05:34:35;5.88;;;2.53;;
22849;SDS011;11591;44.792;10.358;2022-09-09T05:37:03;4.22;;;1.80;;
22849;SDS011;11591;44.792;10.358;2022-09-09T05:39:30;7.25;;;2.30;;
22849;SDS011;11591;44.792;10.358;2022-09-09T05:41:58;8.40;;;2.33;;
22849;SDS011;11591;44.792;10.358;2022-09-09T05:44:24;5.72;;;2.25;;
22849;SDS011;11591;44.792;10.358;2022-09-09T05:46:53;9.95;;;2.30;;
22849;SDS011;11591;44.792;10.358;2022-09-09T05:49:20;10.13;;;4.15;;
22849;SDS011;11591;44.792;10.358;2022-09-09T05:51:47;4.78;;;1.70;;
22849;SDS011;11591;44.792;10.358;2022-09-09T05:54:16;7.78;;;2.58;;
22849;SDS011;11591;44.792;10.358;2022-09-09T05:56:46;4.78;;;1.30;;
22849;SDS011;11591;44.792;10.358;2022-09-09T05:59:14;7.95;;;1.90;;
22849;SDS011;11591;44.792;10.358;2022-09-09T06:01:40;2.88;;;1.10;;
22849;SDS011;11591;44.792;10.358;2022-09-09T06:04:13;6.90;;;1.50;;
22849;SDS011;11591;44.792;10.358;2022-09-09T06:06:39;4.82;;;1.25;;
22849;SDS011;11591;44.792;10.358;2022-09-09T06:09:17;6.00;;;1.63;;
22849;SDS011;11591;44.792;10.358;2022-09-09T06:11:43;9.30;;;2.05;;
22849;SDS011;11591;44.792;10.358;2022-09-09T06:14:10;7.68;;;2.42;;
22849;SDS011;11591;44.792;10.358;2022-09-09T06:16:37;6.85;;;2.35;;
22849;SDS011;11591;44.792;10.358;2022-09-09T06:19:08;10.52;;;2.65;;
22849;SDS011;11591;44.792;10.358;2022-09-09T06:21:34;6.15;;;2.67;;
22849;SDS011;11591;44.792;10.358;2022-09-09T06:24:03;5.75;;;2.60;;
22849;SDS011;11591;44.792;10.358;2022-09-09T06:26:31;6.60;;;2.92;;
22849;SDS011;11591;44.792;10.358;2022-09-09T06:29:00;6.95;;;2.92;;
22849;SDS011;11591;44.792;10.358;2022-09-09T06:31:29;7.47;;;2.50;;
22849;SDS011;11591;44.792;10.358;2022-09-09T06:34:04;9.23;;;2.75;;
22849;SDS011;11591;44.792;10.358;2022-09-09T06:36:33;3.75;;;2.10;;
22849;SDS011;11591;44.792;10.358;2022-09-09T06:39:02;10.27;;;3.38;;
22849;SDS011;11591;44.792;10.358;2022-09-09T06:41:30;7.70;;;2.47;;
22849;SDS011;11591;44.792;10.358;2022-09-09T06:43:59;5.50;;;2.80;;
22849;SDS011;11591;44.792;10.358;2022-09-09T06:46:40;8.60;;;2.67;;
22849;SDS011;11591;44.792;10.358;2022-09-09T06:49:08;8.10;;;3.10;;
22849;SDS011;11591;44.792;10.358;2022-09-09T06:51:35;11.43;;;2.65;;
22849;SDS011;11591;44.792;10.358;2022-09-09T06:54:08;11.32;;;3.00;;
22849;SDS011;11591;44.792;10.358;2022-09-09T06:56:35;10.07;;;3.00;;
22849;SDS011;11591;44.792;10.358;2022-09-09T06:59:07;19.13;;;4.07;;
22849;SDS011;11591;44.792;10.358;2022-09-09T07:01:36;12.55;;;4.03;;
22849;SDS011;11591;44.792;10.358;2022-09-09T07:04:09;12.02;;;5.30;;
22849;SDS011;11591;44.792;10.358;2022-09-09T07:06:39;13.05;;;6.03;;
22849;SDS011;11591;44.792;10.358;2022-09-09T07:09:10;23.75;;;7.22;;
22849;SDS011;11591;44.792;10.358;2022-09-09T07:11:42;21.25;;;8.15;;
22849;SDS011;11591;44.792;10.358;2022-09-09T07:14:10;21.58;;;8.60;;
22849;SDS011;11591;44.792;10.358;2022-09-09T07:16:43;21.90;;;9.90;;
22849;SDS011;11591;44.792;10.358;2022-09-09T07:19:10;27.88;;;10.60;;
22849;SDS011;11591;44.792;10.358;2022-09-09T07:21:38;22.42;;;11.05;;
22849;SDS011;11591;44.792;10.358;2022-09-09T07:24:05;28.08;;;12.00;;
22849;SDS011;11591;44.792;10.358;2022-09-09T07:26:36;26.80;;;13.45;;
22849;SDS011;11591;44.792;10.358;2022-09-09T07:29:04;28.38;;;13.07;;
22849;SDS011;11591;44.792;10.358;2022-09-09T07:31:31;25.95;;;12.63;;
22849;SDS011;11591;44.792;10.358;2022-09-09T07:34:00;25.30;;;12.02;;
22849;SDS011;11591;44.792;10.358;2022-09-09T07:36:28;27.98;;;13.20;;
22849;SDS011;11591;44.792;10.358;2022-09-09T07:39:00;33.20;;;13.57;;
22849;SDS011;11591;44.792;10.358;2022-09-09T07:41:34;27.08;;;13.27;;
22849;SDS011;11591;44.792;10.358;2022-09-09T07:44:11;27.77;;;13.90;;
22849;SDS011;11591;44.792;10.358;2022-09-09T07:46:40;30.33;;;13.43;;
22849;SDS011;11591;44.792;10.358;2022-09-09T07:49:09;33.35;;;13.60;;
22849;SDS011;11591;44.792;10.358;2022-09-09T07:51:36;31.17;;;14.35;;
22849;SDS011;11591;44.792;10.358;2022-09-09T07:54:05;32.13;;;14.00;;
22849;SDS011;11591;44.792;10.358;2022-09-09T07:56:35;32.85;;;14.10;;
22849;SDS011;11591;44.792;10.358;2022-09-09T07:59:03;27.50;;;13.52;;
22849;SDS011;11591;44.792;10.358;2022-09-09T08:01:36;32.22;;;14.05;;
22849;SDS011;11591;44.792;10.358;2022-09-09T08:04:10;33.42;;;13.85;;
22849;SDS011;11591;44.792;10.358;2022-09-09T08:06:45;26.08;;;13.77;;
22849;SDS011;11591;44.792;10.358;2022-09-09T08:09:14;27.15;;;14.02;;
22849;SDS011;11591;44.792;10.358;2022-09-09T08:11:41;28.08;;;14.07;;
22849;SDS011;11591;44.792;10.358;2022-09-09T08:14:08;34.60;;;14.77;;
22849;SDS011;11591;44.792;10.358;2022-09-09T08:16:37;24.58;;;13.75;;
22849;SDS011;11591;44.792;10.358;2022-09-09T08:19:07;31.83;;;14.98;;
22849;SDS011;11591;44.792;10.358;2022-09-09T08:21:35;29.38;;;14.73;;
22849;SDS011;11591;44.792;10.358;2022-09-09T08:24:03;28.52;;;14.55;;
22849;SDS011;11591;44.792;10.358;2022-09-09T08:26:35;30.30;;;14.90;;
22849;SDS011;11591;44.792;10.358;2022-09-09T08:29:03;31.52;;;15.52;;
22849;SDS011;11591;44.792;10.358;2022-09-09T08:31:32;31.35;;;15.25;;
22849;SDS011;11591;44.792;10.358;2022-09-09T08:34:00;37.05;;;16.27;;
22849;SDS011;11591;44.792;10.358;2022-09-09T08:36:33;35.15;;;15.20;;
22849;SDS011;11591;44.792;10.358;2022-09-09T08:39:02;35.40;;;16.08;;
22849;SDS011;11591;44.792;10.358;2022-09-09T08:47:18;34.05;;;16.70;;
22849;SDS011;11591;44.792;10.358;2022-09-09T08:55:35;31.00;;;15.82;;
22849;SDS011;11591;44.792;10.358;2022-09-09T08:58:11;36.42;;;16.60;;
22849;SDS011;11591;44.792;10.358;2022-09-09T09:00:42;39.15;;;16.77;;
22849;SDS011;11591;44.792;10.358;2022-09-09T09:03:15;38.33;;;17.55;;
22849;SDS011;11591;44.792;10.358;2022-09-09T09:11:03;38.83;;;15.77;;
22849;SDS011;11591;44.792;10.358;2022-09-09T09:13:40;37.17;;;17.42;;
22849;SDS011;11591;44.792;10.358;2022-09-09T09:16:27;41.13;;;17.38;;
22849;SDS011;11591;44.792;10.358;2022-09-09T09:19:03;35.53;;;16.05;;
22849;SDS011;11591;44.792;10.358;2022-09-09T09:28:02;37.55;;;15.98;;
22849;SDS011;11591;44.792;10.358;2022-09-09T09:33:41;31.77;;;13.50;;
22849;SDS011;11591;44.792;10.358;2022-09-09T09:36:17;34.05;;;15.27;;
22849;SDS011;11591;44.792;10.358;2022-09-09T09:38:53;29.95;;;15.30;;
22849;SDS011;11591;44.792;10.358;2022-09-09T09:41:34;35.45;;;14.02;;
22849;SDS011;11591;44.792;10.358;2022-09-09T09:44:18;26.88;;;13.18;;
22849;SDS011;11591;44.792;10.358;2022-09-09T09:46:49;27.13;;;14.97;;
22849;SDS011;11591;44.792;10.358;2022-09-09T09:49:15;28.90;;;14.73;;
22849;SDS011;11591;44.792;10.358;2022-09-09T09:51:42;26.23;;;14.10;;
22849;SDS011;11591;44.792;10.358;2022-09-09T09:56:39;26.38;;;13.32;;
22849;SDS011;11591;44.792;10.358;2022-09-09T10:02:17;25.27;;;11.50;;
22849;SDS011;11591;44.792;10.358;2022-09-09T10:05:00;28.42;;;13.63;;
22849;SDS011;11591;44.792;10.358;2022-09-09T10:07:28;16.10;;;8.77;;
22849;SDS011;11591;44.792;10.358;2022-09-09T10:09:55;19.20;;;9.38;;
22849;SDS011;11591;44.792;10.358;2022-09-09T10:17:58;24.45;;;11.07;;
22849;SDS011;11591;44.792;10.358;2022-09-09T10:31:47;26.35;;;14.88;;
22849;SDS011;11591;44.792;10.358;2022-09-09T10:34:39;30.23;;;14.52;;
22849;SDS011;11591;44.792;10.358;2022-09-09T10:40:02;31.70;;;14.70;;
22849;SDS011;11591;44.792;10.358;2022-09-09T10:43:00;25.67;;;12.75;;
22849;SDS011;11591;44.792;10.358;2022-09-09T10:48:34;21.08;;;10.77;;
22849;SDS011;11591;44.792;10.358;2022-09-09T10:54:27;19.95;;;8.93;;
22849;SDS011;11591;44.792;10.358;2022-09-09T10:57:09;18.10;;;8.85;;
22849;SDS011;11591;44.792;10.358;2022-09-09T10:59:48;21.05;;;8.73;;
22849;SDS011;11591;44.792;10.358;2022-09-09T11:02:28;15.52;;;6.65;;
22849;SDS011;11591;44.792;10.358;2022-09-09T11:10:02;15.85;;;7.35;;
22849;SDS011;11591;44.792;10.358;2022-09-09T11:12:32;11.90;;;6.93;;
22849;SDS011;11591;44.792;10.358;2022-09-09T11:15:14;10.23;;;5.72;;
22849;SDS011;11591;44.792;10.358;2022-09-09T11:17:46;12.15;;;5.43;;
22849;SDS011;11591;44.792;10.358;2022-09-09T11:20:22;11.52;;;4.60;;
22849;SDS011;11591;44.792;10.358;2022-09-09T11:22:55;10.20;;;5.15;;
22849;SDS011;11591;44.792;10.358;2022-09-09T11:33:31;7.95;;;3.55;;
22849;SDS011;11591;44.792;10.358;2022-09-09T11:38:45;10.30;;;3.78;;
22849;SDS011;11591;44.792;10.358;2022-09-09T11:41:12;10.18;;;4.00;;
22849;SDS011;11591;44.792;10.358;2022-09-09T11:43:49;9.82;;;3.80;;
22849;SDS011;11591;44.792;10.358;2022-09-09T11:46:17;9.77;;;4.30;;
22849;SDS011;11591;44.792;10.358;2022-09-09T11:49:04;9.27;;;3.67;;
22849;SDS011;11591;44.792;10.358;2022-09-09T11:51:32;9.63;;;3.97;;
22849;SDS011;11591;44.792;10.358;2022-09-09T11:54:03;16.42;;;3.85;;
22849;SDS011;11591;44.792;10.358;2022-09-09T11:56:51;17.70;;;8.02;;
22849;SDS011;11591;44.792;10.358;2022-09-09T11:59:19;8.82;;;4.38;;
22849;SDS011;11591;44.792;10.358;2022-09-09T12:01:50;8.45;;;4.03;;
22849;SDS011;11591;44.792;10.358;2022-09-09T12:04:36;7.10;;;3.30;;
22849;SDS011;11591;44.792;10.358;2022-09-09T12:07:21;5.15;;;3.40;;
22849;SDS011;11591;44.792;10.358;2022-09-09T12:09:55;10.60;;;3.50;;
22849;SDS011;11591;44.792;10.358;2022-09-09T12:12:30;9.00;;;3.45;;
22849;SDS011;11591;44.792;10.358;2022-09-09T12:17:42;7.72;;;3.53;;
22849;SDS011;11591;44.792;10.358;2022-09-09T12:22:45;7.20;;;3.03;;
22849;SDS011;11591;44.792;10.358;2022-09-09T12:33:24;8.82;;;3.53;;
22849;SDS011;11591;44.792;10.358;2022-09-09T12:35:56;14.00;;;5.72;;
22849;SDS011;11591;44.792;10.358;2022-09-09T12:38:29;7.60;;;2.80;;
22849;SDS011;11591;44.792;10.358;2022-09-09T12:41:01;4.90;;;2.80;;
22849;SDS011;11591;44.792;10.358;2022-09-09T12:43:27;9.27;;;2.70;;
22849;SDS011;11591;44.792;10.358;2022-09-09T12:45:55;8.60;;;2.80;;
22849;SDS011;11591;44.792;10.358;2022-09-09T12:48:37;12.43;;;2.80;;
22849;SDS011;11591;44.792;10.358;2022-09-09T12:51:21;6.47;;;2.88;;
22849;SDS011;11591;44.792;10.358;2022-09-09T12:53:53;9.23;;;2.35;;
22849;SDS011;11591;44.792;10.358;2022-09-09T12:56:24;10.05;;;2.40;;
22849;SDS011;11591;44.792;10.358;2022-09-09T12:58:52;4.72;;;2.05;;
22849;SDS011;11591;44.792;10.358;2022-09-09T13:01:22;5.65;;;2.30;;
22849;SDS011;11591;44.792;10.358;2022-09-09T13:03:56;5.45;;;2.20;;
22849;SDS011;11591;44.792;10.358;2022-09-09T13:06:23;4.43;;;2.00;;
22849;SDS011;11591;44.792;10.358;2022-09-09T13:08:54;6.78;;;2.15;;
22849;SDS011;11591;44.792;10.358;2022-09-09T13:11:41;6.47;;;2.30;;
22849;SDS011;11591;44.792;10.358;2022-09-09T13:14:14;3.05;;;1.90;;
22849;SDS011;11591;44.792;10.358;2022-09-09T13:16:43;9.63;;;1.75;;
22849;SDS011;11591;44.792;10.358;2022-09-09T13:19:21;7.40;;;2.05;;
22849;SDS011;11591;44.792;10.358;2022-09-09T13:21:47;5.25;;;1.90;;
22849;SDS011;11591;44.792;10.358;2022-09-09T13:24:30;5.15;;;2.08;;
22849;SDS011;11591;44.792;10.358;2022-09-09T13:26:59;4.15;;;1.90;;
22849;SDS011;11591;44.792;10.358;2022-09-09T13:29:27;3.42;;;1.75;;
22849;SDS011;11591;44.792;10.358;2022-09-09T13:32:03;7.63;;;2.03;;
22849;SDS011;11591;44.792;10.358;2022-09-09T13:34:31;5.93;;;1.95;;
22849;SDS011;11591;44.792;10.358;2022-09-09T13:37:05;4.40;;;1.50;;
22849;SDS011;11591;44.792;10.358;2022-09-09T13:39:35;4.47;;;1.65;;
22849;SDS011;11591;44.792;10.358;2022-09-09T13:42:03;7.20;;;1.60;;
22849;SDS011;11591;44.792;10.358;2022-09-09T13:44:38;5.38;;;2.10;;
22849;SDS011;11591;44.792;10.358;2022-09-09T13:49:38;6.78;;;1.77;;
22849;SDS011;11591;44.792;10.358;2022-09-09T13:52:13;4.07;;;1.52;;
22849;SDS011;11591;44.792;10.358;2022-09-09T13:54:41;5.03;;;1.50;;
22849;SDS011;11591;44.792;10.358;2022-09-09T13:57:14;5.95;;;2.03;;
22849;SDS011;11591;44.792;10.358;2022-09-09T13:59:48;6.05;;;1.63;;
22849;SDS011;11591;44.792;10.358;2022-09-09T14:02:14;6.95;;;1.60;;
22849;SDS011;11591;44.792;10.358;2022-09-09T14:04:42;5.95;;;1.38;;
22849;SDS011;11591;44.792;10.358;2022-09-09T14:07:11;3.90;;;1.40;;
22849;SDS011;11591;44.792;10.358;2022-09-09T14:09:41;4.28;;;1.35;;
22849;SDS011;11591;44.792;10.358;2022-09-09T14:12:11;3.03;;;1.33;;
22849;SDS011;11591;44.792;10.358;2022-09-09T14:14:37;4.22;;;1.52;;
22849;SDS011;11591;44.792;10.358;2022-09-09T14:17:03;4.40;;;1.45;;
22849;SDS011;11591;44.792;10.358;2022-09-09T14:19:30;3.85;;;1.45;;
22849;SDS011;11591;44.792;10.358;2022-09-09T14:21:56;3.13;;;1.20;;
22849;SDS011;11591;44.792;10.358;2022-09-09T14:24:22;2.78;;;1.50;;
22849;SDS011;11591;44.792;10.358;2022-09-09T14:26:48;7.18;;;1.50;;
22849;SDS011;11591;44.792;10.358;2022-09-09T14:29:14;3.78;;;1.17;;
22849;SDS011;11591;44.792;10.358;2022-09-09T14:31:40;5.82;;;1.67;;
22849;SDS011;11591;44.792;10.358;2022-09-09T14:34:06;6.22;;;1.70;;
22849;SDS011;11591;44.792;10.358;2022-09-09T14:36:32;5.43;;;2.10;;
22849;SDS011;11591;44.792;10.358;2022-09-09T14:38:58;6.50;;;2.10;;
22849;SDS011;11591;44.792;10.358;2022-09-09T14:41:24;7.50;;;1.60;;
22849;SDS011;11591;44.792;10.358;2022-09-09T14:43:50;5.07;;;1.70;;
22849;SDS011;11591;44.792;10.358;2022-09-09T14:46:17;7.88;;;1.80;;
22849;SDS011;11591;44.792;10.358;2022-09-09T14:48:44;6.90;;;1.73;;
22849;SDS011;11591;44.792;10.358;2022-09-09T14:51:20;5.70;;;2.63;;
22849;SDS011;11591;44.792;10.358;2022-09-09T14:53:48;7.18;;;3.15;;
22849;SDS011;11591;44.792;10.358;2022-09-09T14:56:19;10.55;;;2.63;;
22849;SDS011;11591;44.792;10.358;2022-09-09T14:58:47;3.85;;;1.30;;
22849;SDS011;11591;44.792;10.358;2022-09-09T15:01:14;5.85;;;1.73;;
22849;SDS011;11591;44.792;10.358;2022-09-09T15:03:42;6.13;;;1.70;;
22849;SDS011;11591;44.792;10.358;2022-09-09T15:06:13;7.97;;;2.13;;
22849;SDS011;11591;44.792;10.358;2022-09-09T15:08:40;2.78;;;1.40;;
22849;SDS011;11591;44.792;10.358;2022-09-09T15:11:08;3.28;;;1.50;;
22849;SDS011;11591;44.792;10.358;2022-09-09T15:13:35;7.90;;;1.80;;
22849;SDS011;11591;44.792;10.358;2022-09-09T15:16:38;7.25;;;1.80;;
22849;SDS011;11591;44.792;10.358;2022-09-09T15:18:58;5.93;;;1.52;;
22849;SDS011;11591;44.792;10.358;2022-09-09T15:21:26;4.13;;;1.65;;
22849;SDS011;11591;44.792;10.358;2022-09-09T15:23:54;9.80;;;2.30;;
22849;SDS011;11591;44.792;10.358;2022-09-09T15:26:21;6.22;;;1.88;;
22849;SDS011;11591;44.792;10.358;2022-09-09T15:28:47;3.60;;;2.40;;
22849;SDS011;11591;44.792;10.358;2022-09-09T15:31:25;3.35;;;1.90;;
22849;SDS011;11591;44.792;10.358;2022-09-09T15:33:57;6.47;;;2.75;;
22849;SDS011;11591;44.792;10.358;2022-09-09T15:39:00;8.40;;;1.77;;
22849;SDS011;11591;44.792;10.358;2022-09-09T15:41:28;7.85;;;1.63;;
22849;SDS011;11591;44.792;10.358;2022-09-09T15:43:55;3.70;;;1.75;;
22849;SDS011;11591;44.792;10.358;2022-09-09T15:51:53;4.95;;;1.50;;
22849;SDS011;11591;44.792;10.358;2022-09-09T15:54:22;10.30;;;1.88;;
22849;SDS011;11591;44.792;10.358;2022-09-09T15:56:50;5.10;;;1.60;;
22849;SDS011;11591;44.792;10.358;2022-09-09T15:59:24;6.07;;;1.50;;
22849;SDS011;11591;44.792;10.358;2022-09-09T16:01:52;12.45;;;1.80;;
22849;SDS011;11591;44.792;10.358;2022-09-09T16:04:20;5.05;;;1.70;;
22849;SDS011;11591;44.792;10.358;2022-09-09T16:06:50;5.25;;;1.50;;
22849;SDS011;11591;44.792;10.358;2022-09-09T16:09:28;5.50;;;1.40;;
22849;SDS011;11591;44.792;10.358;2022-09-09T16:12:01;3.85;;;1.55;;
22849;SDS011;11591;44.792;10.358;2022-09-09T16:14:31;5.20;;;1.48;;
22849;SDS011;11591;44.792;10.358;2022-09-09T16:17:00;8.27;;;1.85;;
22849;SDS011;11591;44.792;10.358;2022-09-09T16:19:27;4.63;;;1.73;;
22849;SDS011;11591;44.792;10.358;2022-09-09T16:21:53;7.20;;;1.73;;
22849;SDS011;11591;44.792;10.358;2022-09-09T16:24:19;5.97;;;1.73;;
22849;SDS011;11591;44.792;10.358;2022-09-09T16:26:47;8.50;;;1.90;;
22849;SDS011;11591;44.792;10.358;2022-09-09T16:29:15;6.70;;;2.25;;
22849;SDS011;11591;44.792;10.358;2022-09-09T16:31:42;5.22;;;2.13;;
22849;SDS011;11591;44.792;10.358;2022-09-09T16:34:09;10.98;;;2.30;;
22849;SDS011;11591;44.792;10.358;2022-09-09T16:36:36;5.05;;;2.30;;
22849;SDS011;11591;44.792;10.358;2022-09-09T16:39:07;8.80;;;2.95;;
22849;SDS011;11591;44.792;10.358;2022-09-09T16:41:36;7.07;;;2.30;;
22849;SDS011;11591;44.792;10.358;2022-09-09T16:44:03;12.48;;;2.30;;
22849;SDS011;11591;44.792;10.358;2022-09-09T16:46:35;5.88;;;2.50;;
22849;SDS011;11591;44.792;10.358;2022-09-09T16:49:06;17.70;;;2.40;;
22849;SDS011;11591;44.792;10.358;2022-09-09T16:51:37;9.20;;;2.60;;
22849;SDS011;11591;44.792;10.358;2022-09-09T16:54:09;12.02;;;2.53;;
22849;SDS011;11591;44.792;10.358;2022-09-09T16:56:37;6.47;;;2.47;;
22849;SDS011;11591;44.792;10.358;2022-09-09T16:59:07;9.05;;;2.83;;
22849;SDS011;11591;44.792;10.358;2022-09-09T17:01:40;4.70;;;2.33;;
22849;SDS011;11591;44.792;10.358;2022-09-09T17:04:09;17.88;;;2.60;;
22849;SDS011;11591;44.792;10.358;2022-09-09T17:06:37;15.25;;;2.70;;
22849;SDS011;11591;44.792;10.358;2022-09-09T17:09:12;5.13;;;2.38;;
22849;SDS011;11591;44.792;10.358;2022-09-09T17:11:41;6.97;;;2.67;;
22849;SDS011;11591;44.792;10.358;2022-09-09T17:14:07;6.82;;;2.60;;
22849;SDS011;11591;44.792;10.358;2022-09-09T17:16:36;5.93;;;2.75;;
22849;SDS011;11591;44.792;10.358;2022-09-09T17:19:05;6.25;;;2.58;;
22849;SDS011;11591;44.792;10.358;2022-09-09T17:21:38;7.70;;;3.10;;
22849;SDS011;11591;44.792;10.358;2022-09-09T17:24:07;7.93;;;2.70;;
22849;SDS011;11591;44.792;10.358;2022-09-09T17:26:39;7.65;;;2.70;;
22849;SDS011;11591;44.792;10.358;2022-09-09T17:29:10;5.38;;;2.60;;
22849;SDS011;11591;44.792;10.358;2022-09-09T17:31:40;13.13;;;2.70;;
22849;SDS011;11591;44.792;10.358;2022-09-09T17:34:07;7.32;;;2.42;;
22849;SDS011;11591;44.792;10.358;2022-09-09T17:36:37;6.18;;;1.90;;
22849;SDS011;11591;44.792;10.358;2022-09-09T17:39:04;10.35;;;2.40;;
22849;SDS011;11591;44.792;10.358;2022-09-09T17:41:38;6.20;;;2.80;;
22849;SDS011;11591;44.792;10.358;2022-09-09T17:44:09;11.75;;;2.45;;
22849;SDS011;11591;44.792;10.358;2022-09-09T17:46:39;7.18;;;2.75;;
22849;SDS011;11591;44.792;10.358;2022-09-09T17:49:07;5.38;;;2.45;;
22849;SDS011;11591;44.792;10.358;2022-09-09T17:51:35;5.28;;;2.25;;
22849;SDS011;11591;44.792;10.358;2022-09-09T17:54:03;4.97;;;2.30;;
22849;SDS011;11591;44.792;10.358;2022-09-09T17:56:32;6.35;;;2.20;;
22849;SDS011;11591;44.792;10.358;2022-09-09T17:59:00;5.68;;;2.20;;
22849;SDS011;11591;44.792;10.358;2022-09-09T18:01:31;5.28;;;2.00;;
22849;SDS011;11591;44.792;10.358;2022-09-09T18:03:59;7.55;;;2.15;;
22849;SDS011;11591;44.792;10.358;2022-09-09T18:06:28;6.45;;;2.17;;
22849;SDS011;11591;44.792;10.358;2022-09-09T18:08:58;8.65;;;2.15;;
22849;SDS011;11591;44.792;10.358;2022-09-09T18:11:27;5.13;;;2.60;;
22849;SDS011;11591;44.792;10.358;2022-09-09T18:13:57;8.07;;;2.75;;
22849;SDS011;11591;44.792;10.358;2022-09-09T18:16:25;4.55;;;2.17;;
22849;SDS011;11591;44.792;10.358;2022-09-09T18:18:54;9.00;;;2.65;;
22849;SDS011;11591;44.792;10.358;2022-09-09T18:21:23;9.32;;;2.30;;
22849;SDS011;11591;44.792;10.358;2022-09-09T18:23:51;6.55;;;3.03;;
22849;SDS011;11591;44.792;10.358;2022-09-09T18:26:18;5.20;;;2.00;;
22849;SDS011;11591;44.792;10.358;2022-09-09T18:28:50;13.43;;;2.85;;
22849;SDS011;11591;44.792;10.358;2022-09-09T18:31:18;7.03;;;2.53;;
22849;SDS011;11591;44.792;10.358;2022-09-09T18:33:45;7.18;;;2.38;;
22849;SDS011;11591;44.792;10.358;2022-09-09T18:36:18;9.30;;;3.70;;
22849;SDS011;11591;44.792;10.358;2022-09-09T18:38:46;6.57;;;2.83;;
22849;SDS011;11591;44.792;10.358;2022-09-09T18:41:13;10.98;;;4.38;;
22849;SDS011;11591;44.792;10.358;2022-09-09T18:43:45;7.88;;;3.05;;
22849;SDS011;11591;44.792;10.358;2022-09-09T18:46:12;8.35;;;3.13;;
22849;SDS011;11591;44.792;10.358;2022-09-09T18:48:40;10.50;;;3.17;;
22849;SDS011;11591;44.792;10.358;2022-09-09T18:51:08;6.40;;;3.10;;
22849;SDS011;11591;44.792;10.358;2022-09-09T18:53:35;7.82;;;3.03;;
22849;SDS011;11591;44.792;10.358;2022-09-09T18:56:03;7.93;;;2.95;;
22849;SDS011;11591;44.792;10.358;2022-09-09T18:58:30;9.05;;;2.95;;
22849;SDS011;11591;44.792;10.358;2022-09-09T19:00:57;7.28;;;2.80;;
22849;SDS011;11591;44.792;10.358;2022-09-09T19:03:24;4.03;;;2.30;;
22849;SDS011;11591;44.792;10.358;2022-09-09T19:05:51;7.50;;;2.58;;
22849;SDS011;11591;44.792;10.358;2022-09-09T19:08:18;7.13;;;2.30;;
22849;SDS011;11591;44.792;10.358;2022-09-09T19:10:45;6.47;;;2.20;;
22849;SDS011;11591;44.792;10.358;2022-09-09T19:13:11;5.75;;;2.63;;
22849;SDS011;11591;44.792;10.358;2022-09-09T19:15:38;6.90;;;2.40;;
22849;SDS011;11591;44.792;10.358;2022-09-09T19:18:05;5.72;;;2.20;;
22849;SDS011;11591;44.792;10.358;2022-09-09T19:20:31;4.95;;;2.30;;
22849;SDS011;11591;44.792;10.358;2022-09-09T19:22:57;5.68;;;2.40;;
22849;SDS011;11591;44.792;10.358;2022-09-09T19:25:23;8.98;;;2.50;;
22849;SDS011;11591;44.792;10.358;2022-09-09T19:27:49;7.20;;;2.53;;
22849;SDS011;11591;44.792;10.358;2022-09-09T19:30:15;5.60;;;2.50;;
22849;SDS011;11591;44.792;10.358;2022-09-09T19:32:41;6.55;;;2.55;;
22849;SDS011;11591;44.792;10.358;2022-09-09T19:35:07;9.52;;;2.50;;
22849;SDS011;11591;44.792;10.358;2022-09-09T19:37:33;4.70;;;2.50;;
22849;SDS011;11591;44.792;10.358;2022-09-09T19:40:00;9.38;;;2.80;;
22849;SDS011;11591;44.792;10.358;2022-09-09T19:42:26;7.78;;;2.55;;
22849;SDS011;11591;44.792;10.358;2022-09-09T19:44:54;6.80;;;2.85;;
22849;SDS011;11591;44.792;10.358;2022-09-09T19:47:21;7.07;;;3.58;;
22849;SDS011;11591;44.792;10.358;2022-09-09T19:49:47;9.48;;;2.80;;
22849;SDS011;11591;44.792;10.358;2022-09-09T19:52:16;5.75;;;3.40;;
22849;SDS011;11591;44.792;10.358;2022-09-09T19:54:43;8.40;;;3.15;;
22849;SDS011;11591;44.792;10.358;2022-09-09T19:57:09;8.75;;;3.60;;
22849;SDS011;11591;44.792;10.358;2022-09-09T19:59:35;8.13;;;3.75;;
22849;SDS011;11591;44.792;10.358;2022-09-09T20:02:01;5.60;;;3.30;;
22849;SDS011;11591;44.792;10.358;2022-09-09T20:04:26;5.97;;;3.13;;
22849;SDS011;11591;44.792;10.358;2022-09-09T20:06:52;12.27;;;2.90;;
22849;SDS011;11591;44.792;10.358;2022-09-09T20:09:18;5.95;;;2.72;;
22849;SDS011;11591;44.792;10.358;2022-09-09T20:11:46;3.75;;;2.08;;
22849;SDS011;11591;44.792;10.358;2022-09-09T20:14:14;11.38;;;2.47;;
22849;SDS011;11591;44.792;10.358;2022-09-09T20:16:41;5.82;;;2.88;;
22849;SDS011;11591;44.792;10.358;2022-09-09T20:19:08;8.60;;;2.53;;
22849;SDS011;11591;44.792;10.358;2022-09-09T20:21:37;11.32;;;2.55;;
22849;SDS011;11591;44.792;10.358;2022-09-09T20:24:11;7.13;;;2.28;;
22849;SDS011;11591;44.792;10.358;2022-09-09T20:26:38;5.10;;;1.90;;
22849;SDS011;11591;44.792;10.358;2022-09-09T20:29:05;6.13;;;2.10;;
22849;SDS011;11591;44.792;10.358;2022-09-09T20:31:35;4.95;;;1.80;;
22849;SDS011;11591;44.792;10.358;2022-09-09T20:34:05;6.03;;;2.20;;
22849;SDS011;11591;44.792;10.358;2022-09-09T20:36:34;6.20;;;2.42;;
22849;SDS011;11591;44.792;10.358;2022-09-09T20:39:02;5.43;;;2.08;;
22849;SDS011;11591;44.792;10.358;2022-09-09T20:41:34;8.45;;;2.60;;
22849;SDS011;11591;44.792;10.358;2022-09-09T20:44:08;6.78;;;3.53;;
22849;SDS011;11591;44.792;10.358;2022-09-09T20:46:38;12.75;;;4.65;;
22849;SDS011;11591;44.792;10.358;2022-09-09T20:49:07;16.67;;;6.70;;
22849;SDS011;11591;44.792;10.358;2022-09-09T20:51:35;16.67;;;6.22;;